Dalton, New Hampshire
Current Conditions -  °F | °C
As of 2:52 AM on Friday 31 Oct 2014 (Local Time) from KHIE Reporting Station
Overcast Overcast  
Wind Chill: 37°   Ceiling: 3900
Heat Index: 37°   Visibility: 10mi
Dew Point: 35°   Wind: 0mph
Humidity: 93%   Direction: NA
Pressure: 30"   Gusts: NA
Location:  44.3374°N, 71.528°W
Report Text: KHIE 310652Z AUTO 00000KT 10SM OVC039 03/02 A3000 RMK AO2 SLP166 T00280017
Loading
Personal Weather Stations






























Interactive Weather Map
Tropical Storm Tracking
New forecast layout! Learn more

10-Day Weather Forecast

Advertisements
Track Severe Weather on mobile